createdAt,value
2022-09-17T00:01:06.720Z,84.00
2022-09-17T00:03:34.364Z,84.30
2022-09-17T00:06:09.287Z,83.90
2022-09-17T00:08:37.588Z,82.70
2022-09-17T00:11:15.808Z,83.70
2022-09-17T00:13:43.801Z,84.70
2022-09-17T00:16:11.223Z,84.50
2022-09-17T00:18:41.529Z,83.10
2022-09-17T00:21:18.885Z,83.90
2022-09-17T00:23:45.685Z,84.30
2022-09-17T00:26:12.781Z,84.20
2022-09-17T00:28:39.596Z,83.50
2022-09-17T00:31:09.949Z,83.30
2022-09-17T00:33:36.958Z,82.70
2022-09-17T00:36:05.147Z,82.30
2022-09-17T00:38:32.423Z,82.00
2022-09-17T00:40:59.120Z,82.30
2022-09-17T00:43:48.792Z,81.50
2022-09-17T00:46:37.731Z,81.50
2022-09-17T00:49:16.669Z,81.10
2022-09-17T00:52:00.657Z,81.80
2022-09-17T00:54:28.229Z,81.60
2022-09-17T00:56:55.240Z,81.90
2022-09-17T00:59:22.677Z,82.00
2022-09-17T01:01:49.768Z,82.30
2022-09-17T01:04:21.646Z,82.30
2022-09-17T01:06:58.033Z,82.20
2022-09-17T01:09:48.742Z,82.40
2022-09-17T01:12:32.499Z,82.90
2022-09-17T01:15:33.041Z,83.00
2022-09-17T01:18:22.538Z,83.70
2022-09-17T01:21:10.521Z,83.50
2022-09-17T01:23:55.489Z,83.80
2022-09-17T01:26:50.090Z,84.30
2022-09-17T01:29:52.533Z,84.40
2022-09-17T01:32:38.860Z,84.20
2022-09-17T01:35:19.204Z,84.20
2022-09-17T01:38:14.700Z,84.00
2022-09-17T01:40:55.516Z,83.20
2022-09-17T01:43:34.448Z,83.00
2022-09-17T01:46:11.485Z,82.60
2022-09-17T01:48:44.904Z,83.30
2022-09-17T01:51:17.007Z,83.10
2022-09-17T01:53:51.395Z,82.60
2022-09-17T01:56:26.089Z,82.20
2022-09-17T01:59:26.013Z,82.40
2022-09-17T02:01:59.017Z,82.00
2022-09-17T02:04:34.356Z,82.70
2022-09-17T02:07:08.157Z,82.10
2022-09-17T02:09:43.141Z,82.80
2022-09-17T02:12:18.499Z,82.40
2022-09-17T02:14:52.419Z,83.00
2022-09-17T02:17:41.932Z,83.40
2022-09-17T02:20:09.837Z,83.70
2022-09-17T02:22:51.727Z,83.90
2022-09-17T02:25:31.329Z,83.20
2022-09-17T02:28:23.405Z,83.70
2022-09-17T02:30:50.542Z,83.20
2022-09-17T02:33:18.533Z,83.30
2022-09-17T02:35:46.561Z,82.70
2022-09-17T02:38:13.531Z,83.10
2022-09-17T02:40:50.045Z,82.80
2022-09-17T02:43:25.501Z,83.40
2022-09-17T02:46:14.947Z,83.30
2022-09-17T02:49:09.309Z,83.50
2022-09-17T02:51:52.071Z,83.50
2022-09-17T02:54:28.943Z,83.40
2022-09-17T02:57:15.345Z,83.20
2022-09-17T02:59:58.832Z,83.50
2022-09-17T03:02:31.962Z,84.00
2022-09-17T03:04:59.909Z,83.90
2022-09-17T03:07:29.071Z,84.30
2022-09-17T03:09:55.788Z,84.40
2022-09-17T03:12:24.442Z,84.40
2022-09-17T03:14:51.152Z,84.20
2022-09-17T03:17:17.925Z,84.10
2022-09-17T03:19:44.707Z,84.00
2022-09-17T03:22:11.684Z,83.80
2022-09-17T03:24:38.503Z,83.70
2022-09-17T03:27:05.538Z,83.60
2022-09-17T03:29:32.364Z,83.90
2022-09-17T03:31:59.300Z,84.10
2022-09-17T03:34:25.998Z,84.00
2022-09-17T03:36:52.660Z,83.90
2022-09-17T03:39:19.288Z,84.30
2022-09-17T03:41:45.919Z,83.90
2022-09-17T03:44:12.578Z,84.00
2022-09-17T03:46:39.285Z,84.50
2022-09-17T03:49:05.999Z,83.60
2022-09-17T03:51:32.783Z,83.20
2022-09-17T03:53:59.462Z,83.50
2022-09-17T03:56:26.969Z,83.50
2022-09-17T03:58:58.218Z,83.70
2022-09-17T04:01:25.002Z,83.40
2022-09-17T04:03:51.708Z,83.10
2022-09-17T04:06:18.397Z,83.80
2022-09-17T04:08:45.086Z,83.40
2022-09-17T04:11:11.752Z,83.80
2022-09-17T04:13:38.409Z,83.50
2022-09-17T04:16:05.248Z,83.90
2022-09-17T04:18:31.996Z,83.60
2022-09-17T04:20:58.658Z,83.80
2022-09-17T04:23:25.345Z,84.10
2022-09-17T04:25:52.657Z,84.50
2022-09-17T04:28:19.310Z,84.30
2022-09-17T04:30:47.589Z,84.60
2022-09-17T04:33:14.265Z,84.30
2022-09-17T04:35:41.307Z,84.50
2022-09-17T04:38:09.348Z,84.90
2022-09-17T04:40:36.362Z,84.40
2022-09-17T04:43:04.076Z,84.50
2022-09-17T04:45:33.318Z,84.20
2022-09-17T04:48:00.125Z,84.00
2022-09-17T04:50:26.792Z,84.40
2022-09-17T04:52:53.508Z,84.40
2022-09-17T04:55:20.208Z,84.50
2022-09-17T04:57:52.222Z,83.90
2022-09-17T05:00:20.618Z,84.00
2022-09-17T05:02:49.709Z,84.10
2022-09-17T05:05:17.805Z,84.00
2022-09-17T05:07:45.199Z,84.60
2022-09-17T05:10:13.848Z,84.60
2022-09-17T05:12:40.536Z,84.90
2022-09-17T05:15:07.759Z,84.20
2022-09-17T05:17:34.400Z,84.10
2022-09-17T05:20:01.888Z,84.40
2022-09-17T05:22:28.576Z,83.40
2022-09-17T05:24:55.382Z,83.30
2022-09-17T05:27:22.130Z,84.30
2022-09-17T05:29:49.983Z,82.90
2022-09-17T05:32:16.794Z,82.90
2022-09-17T05:34:43.526Z,82.20
2022-09-17T05:37:11.520Z,82.50
2022-09-17T05:39:38.185Z,83.00
2022-09-17T05:42:05.111Z,83.20
2022-09-17T05:44:31.803Z,83.70
2022-09-17T05:46:58.829Z,83.70
2022-09-17T05:49:25.577Z,83.60
2022-09-17T05:51:52.566Z,84.30
2022-09-17T05:54:19.494Z,84.10
2022-09-17T05:56:46.436Z,84.00
2022-09-17T05:59:13.183Z,84.10
2022-09-17T06:01:42.490Z,83.70
2022-09-17T06:04:11.409Z,83.30
2022-09-17T06:06:38.966Z,83.70
2022-09-17T06:09:06.401Z,83.00
2022-09-17T06:11:35.906Z,83.10
2022-09-17T06:14:04.010Z,83.20
2022-09-17T06:16:32.740Z,82.70
2022-09-17T06:18:59.594Z,82.60
2022-09-17T06:21:26.468Z,82.80
2022-09-17T06:23:53.221Z,83.40
2022-09-17T06:26:20.353Z,83.30
2022-09-17T06:28:47.008Z,82.90
2022-09-17T06:31:13.955Z,82.30
2022-09-17T06:33:41.317Z,82.40
2022-09-17T06:36:13.645Z,82.10
2022-09-17T06:38:41.580Z,82.70
2022-09-17T06:41:08.745Z,83.60
2022-09-17T06:43:35.429Z,83.30
2022-09-17T06:46:06.016Z,83.40
2022-09-17T06:48:35.757Z,84.00
2022-09-17T06:51:04.179Z,79.20
2022-09-17T06:53:31.599Z,79.20
2022-09-17T06:56:05.260Z,80.80
2022-09-17T06:58:33.784Z,81.50
2022-09-17T07:01:04.832Z,81.50
2022-09-17T07:03:32.555Z,82.80
2022-09-17T07:05:59.216Z,80.40
2022-09-17T07:08:26.333Z,81.70
2022-09-17T07:10:57.470Z,82.60
2022-09-17T07:13:25.154Z,82.40
2022-09-17T07:15:55.886Z,82.80
2022-09-17T07:18:23.290Z,82.80
2022-09-17T07:20:57.956Z,81.90
2022-09-17T07:23:26.766Z,82.30
2022-09-17T07:25:55.089Z,82.60
2022-09-17T07:28:22.563Z,81.60
2022-09-17T07:30:50.874Z,83.00
2022-09-17T07:33:23.136Z,83.10
2022-09-17T07:35:54.782Z,82.30
2022-09-17T07:38:22.747Z,82.50
2022-09-17T07:41:00.549Z,82.60
2022-09-17T07:43:28.996Z,83.70
2022-09-17T07:45:57.888Z,83.90
2022-09-17T07:48:25.705Z,81.90
2022-09-17T07:50:52.751Z,82.40
2022-09-17T07:53:19.515Z,82.00
2022-09-17T07:55:57.304Z,80.80
2022-09-17T08:03:08.980Z,83.50
2022-09-17T08:06:12.077Z,81.20
2022-09-17T08:08:42.522Z,80.00
2022-09-17T08:11:32.482Z,80.40
2022-09-17T08:14:05.773Z,78.80
2022-09-17T08:16:32.482Z,77.90
2022-09-17T08:18:59.257Z,78.50
2022-09-17T08:21:26.251Z,78.30
2022-09-17T08:23:53.030Z,78.30
2022-09-17T08:26:23.546Z,77.40
2022-09-17T08:28:54.950Z,78.50
2022-09-17T08:31:26.764Z,77.40
2022-09-17T08:33:53.845Z,76.40
2022-09-17T08:36:22.655Z,75.80
2022-09-17T08:38:53.475Z,76.00
2022-09-17T08:42:02.481Z,77.20
2022-09-17T08:44:41.121Z,75.80
2022-09-17T08:47:37.915Z,75.80
2022-09-17T08:50:15.081Z,77.00
2022-09-17T08:53:11.592Z,74.60
2022-09-17T08:55:43.460Z,74.80
2022-09-17T08:58:47.062Z,76.10
2022-09-17T09:02:21.254Z,74.60
2022-09-17T09:08:30.682Z,72.70
2022-09-17T09:11:00.112Z,72.70
2022-09-17T09:14:03.839Z,71.40
2022-09-17T09:16:34.056Z,68.80
2022-09-17T09:19:19.897Z,70.20
2022-09-17T09:22:27.337Z,70.30
2022-09-17T09:25:24.429Z,69.20
2022-09-17T09:28:04.089Z,68.90
2022-09-17T09:30:59.099Z,68.80
2022-09-17T09:33:48.100Z,71.80
2022-09-17T09:36:21.480Z,70.60
2022-09-17T09:39:12.338Z,71.30
2022-09-17T09:41:54.267Z,72.30
2022-09-17T09:44:23.980Z,72.20
2022-09-17T09:47:19.639Z,74.00
2022-09-17T09:49:53.697Z,71.10
2022-09-17T09:52:48.265Z,70.00
2022-09-17T09:55:37.370Z,72.30
2022-09-17T09:58:31.038Z,70.20
2022-09-17T10:00:58.009Z,70.30
2022-09-17T10:03:32.347Z,70.30
2022-09-17T10:05:59.046Z,71.20
2022-09-17T10:08:27.663Z,71.70
2022-09-17T10:10:55.883Z,72.00
2022-09-17T10:13:22.950Z,68.70
2022-09-17T10:15:49.913Z,68.40
2022-09-17T10:18:24.626Z,67.80
2022-09-17T10:20:59.796Z,70.50
2022-09-17T10:23:29.141Z,70.00
2022-09-17T10:25:56.594Z,71.50
2022-09-17T10:28:51.369Z,69.40
2022-09-17T10:31:18.863Z,69.60
2022-09-17T10:34:18.600Z,69.00
2022-09-17T10:36:46.796Z,67.50
2022-09-17T10:39:37.996Z,68.90
2022-09-17T10:42:13.885Z,72.60
2022-09-17T10:44:55.229Z,71.20
2022-09-17T10:47:36.184Z,73.10
2022-09-17T10:50:16.081Z,68.90
2022-09-17T10:52:49.637Z,71.80
2022-09-17T10:55:33.388Z,69.70
2022-09-17T10:58:07.179Z,71.70
2022-09-17T11:00:33.838Z,69.40
2022-09-17T11:03:28.539Z,71.40
2022-09-17T11:07:18.955Z,72.60
2022-09-17T11:10:04.503Z,74.70
2022-09-17T11:12:47.195Z,76.00
2022-09-17T11:15:27.864Z,79.70
2022-09-17T11:18:26.525Z,81.40
2022-09-17T11:21:05.527Z,82.50
2022-09-17T11:23:38.312Z,81.40
2022-09-17T11:26:13.152Z,81.90
2022-09-17T11:29:05.459Z,81.10
2022-09-17T11:32:25.573Z,80.10
2022-09-17T11:35:36.624Z,79.20
2022-09-17T11:38:27.466Z,80.90
2022-09-17T11:41:21.888Z,78.60
2022-09-17T11:44:20.941Z,77.80
2022-09-17T11:47:08.486Z,79.50
2022-09-17T11:50:01.535Z,79.10
2022-09-17T11:52:57.499Z,80.10
2022-09-17T11:55:33.099Z,80.70
2022-09-17T11:58:04.479Z,77.10
2022-09-17T12:00:36.354Z,78.30
2022-09-17T12:03:50.396Z,77.80
2022-09-17T12:06:25.929Z,79.60
2022-09-17T12:09:03.481Z,79.60
2022-09-17T12:12:02.420Z,77.50
2022-09-17T12:14:58.612Z,79.50
2022-09-17T12:17:31.581Z,79.20
2022-09-17T12:20:08.977Z,81.00
2022-09-17T12:22:41.630Z,79.80
2022-09-17T12:25:14.082Z,77.90
2022-09-17T12:27:53.443Z,78.50
2022-09-17T12:30:25.808Z,80.60
2022-09-17T12:33:01.194Z,80.40
2022-09-17T12:36:03.040Z,79.70
2022-09-17T12:39:03.243Z,80.40
2022-09-17T12:41:48.821Z,80.50
2022-09-17T12:44:35.417Z,76.30
2022-09-17T12:47:32.195Z,78.70
2022-09-17T12:50:17.411Z,77.80
2022-09-17T12:53:08.400Z,79.60
2022-09-17T12:55:56.556Z,79.10
2022-09-17T12:59:09.028Z,78.30
2022-09-17T13:02:00.356Z,78.50
2022-09-17T13:05:00.588Z,79.50
2022-09-17T13:07:37.165Z,79.10
2022-09-17T13:10:25.348Z,79.40
2022-09-17T13:13:10.180Z,79.60
2022-09-17T13:15:46.439Z,79.40
2022-09-17T13:18:27.688Z,80.40
2022-09-17T13:21:06.321Z,79.90
2022-09-17T13:23:40.929Z,81.00
2022-09-17T13:26:08.997Z,81.70
2022-09-17T13:28:44.605Z,81.40
2022-09-17T13:31:18.978Z,81.30
2022-09-17T13:33:56.003Z,80.30
2022-09-17T13:36:43.284Z,79.60
2022-09-17T13:39:31.980Z,78.70
2022-09-17T13:42:09.405Z,77.40
2022-09-17T13:44:47.376Z,78.10
2022-09-17T13:47:27.403Z,78.10
2022-09-17T13:50:20.942Z,73.70
2022-09-17T13:52:50.464Z,76.10
2022-09-17T13:55:38.737Z,77.60
2022-09-17T13:58:27.975Z,77.60
2022-09-17T14:01:12.442Z,76.00
2022-09-17T14:03:44.429Z,74.40
2022-09-17T14:06:11.375Z,73.70
2022-09-17T14:08:44.242Z,73.80
2022-09-17T14:11:26.869Z,73.60
2022-09-17T14:13:55.136Z,73.40
2022-09-17T14:16:40.587Z,75.60
2022-09-17T14:19:16.895Z,74.50
2022-09-17T14:21:59.554Z,74.50
2022-09-17T14:24:32.905Z,73.50
2022-09-17T14:27:27.928Z,72.40
2022-09-17T14:30:03.159Z,73.40
2022-09-17T14:32:59.456Z,73.10
2022-09-17T14:35:44.032Z,66.60
2022-09-17T14:38:13.686Z,68.40
2022-09-17T14:41:12.104Z,70.60
2022-09-17T14:44:21.909Z,72.30
2022-09-17T14:47:00.716Z,73.00
2022-09-17T14:49:40.985Z,73.40
2022-09-17T14:52:26.680Z,74.40
2022-09-17T14:55:20.082Z,74.10
2022-09-17T14:57:51.700Z,74.80
2022-09-17T15:00:28.217Z,73.90
2022-09-17T15:02:59.723Z,75.30
2022-09-17T15:05:37.928Z,75.10
2022-09-17T15:08:07.454Z,75.70
2022-09-17T15:10:44.846Z,75.00
2022-09-17T15:13:19.463Z,75.90
2022-09-17T15:16:01.644Z,75.70
2022-09-17T15:18:36.590Z,76.90
2022-09-17T15:21:06.719Z,76.60
2022-09-17T15:23:35.870Z,76.60
2022-09-17T15:26:03.356Z,77.30
2022-09-17T15:28:43.709Z,78.60
2022-09-17T15:31:20.049Z,77.40
2022-09-17T15:33:47.475Z,79.10
2022-09-17T15:36:27.345Z,78.80
2022-09-17T15:38:54.615Z,77.90
2022-09-17T15:41:36.652Z,77.90
2022-09-17T15:44:29.109Z,79.00
2022-09-17T15:47:17.275Z,79.10
2022-09-17T15:50:07.041Z,79.30
2022-09-17T15:52:38.096Z,79.50
2022-09-17T15:55:05.747Z,80.60
2022-09-17T15:57:35.901Z,81.40
2022-09-17T16:00:13.090Z,82.20
2022-09-17T16:02:40.374Z,82.00
2022-09-17T16:05:19.327Z,82.10
2022-09-17T16:07:46.459Z,83.00
2022-09-17T16:10:15.355Z,82.90
2022-09-17T16:12:42.799Z,82.60
2022-09-17T16:15:13.546Z,83.20
2022-09-17T16:17:47.780Z,83.20
2022-09-17T16:20:23.690Z,84.10
2022-09-17T16:22:54.937Z,84.10
2022-09-17T16:25:25.742Z,84.90
2022-09-17T16:27:57.560Z,84.60
2022-09-17T16:30:25.023Z,83.10
2022-09-17T16:32:58.037Z,84.10
2022-09-17T16:35:28.321Z,83.70
2022-09-17T16:37:56.508Z,83.60
2022-09-17T16:40:51.813Z,84.50
2022-09-17T16:43:20.295Z,84.80
2022-09-17T16:46:20.069Z,84.60
2022-09-17T16:48:50.774Z,85.00
2022-09-17T16:51:26.308Z,84.70
2022-09-17T16:53:53.903Z,85.30
2022-09-17T16:56:20.808Z,84.00
2022-09-17T16:58:47.701Z,83.90
2022-09-17T17:01:16.178Z,84.20
2022-09-17T17:03:45.492Z,84.10
2022-09-17T17:06:19.622Z,82.90
2022-09-17T17:08:47.115Z,82.80
2022-09-17T17:11:14.593Z,82.30
2022-09-17T17:13:47.760Z,82.20
2022-09-17T17:16:15.171Z,83.10
2022-09-17T17:18:45.217Z,83.00
2022-09-17T17:21:14.274Z,82.80
2022-09-17T17:23:43.754Z,83.00
2022-09-17T17:26:10.528Z,83.10
2022-09-17T17:28:40.667Z,83.50
2022-09-17T17:31:07.602Z,83.40
2022-09-17T17:33:34.694Z,84.20
2022-09-17T17:36:07.491Z,84.30
2022-09-17T17:38:34.557Z,84.30
2022-09-17T17:41:10.869Z,84.40
2022-09-17T17:43:37.976Z,84.70
2022-09-17T17:46:12.175Z,84.30
2022-09-17T17:48:39.098Z,84.50
2022-09-17T17:51:09.739Z,84.30
2022-09-17T17:53:37.022Z,84.90
2022-09-17T17:56:06.551Z,84.70
2022-09-17T17:58:33.362Z,85.10
2022-09-17T18:01:00.904Z,85.10
2022-09-17T18:03:27.748Z,85.00
2022-09-17T18:05:58.495Z,84.70
2022-09-17T18:08:25.942Z,84.70
2022-09-17T18:10:57.856Z,84.40
2022-09-17T18:13:24.789Z,84.60
2022-09-17T18:15:56.564Z,84.80
2022-09-17T18:18:24.604Z,84.00
2022-09-17T18:20:53.835Z,84.90
2022-09-17T18:23:21.157Z,85.20
2022-09-17T18:25:59.399Z,85.10
2022-09-17T18:28:27.728Z,86.00
2022-09-17T18:30:55.200Z,85.70
2022-09-17T18:33:26.743Z,85.80
2022-09-17T18:35:57.207Z,85.80
2022-09-17T18:38:24.319Z,85.50
2022-09-17T18:40:51.863Z,85.20
2022-09-17T18:43:18.997Z,85.60
2022-09-17T18:45:56.073Z,85.90
2022-09-17T18:48:23.989Z,85.60
2022-09-17T18:51:08.686Z,85.80
2022-09-17T18:53:37.565Z,85.50
2022-09-17T18:56:11.296Z,85.50
2022-09-17T18:58:38.014Z,86.00
2022-09-17T19:01:06.145Z,85.60
2022-09-17T19:03:33.280Z,86.10
2022-09-17T19:06:01.192Z,86.30
2022-09-17T19:08:28.228Z,86.30
2022-09-17T19:10:54.953Z,86.10
2022-09-17T19:13:21.692Z,85.80
2022-09-17T19:15:48.458Z,86.40
2022-09-17T19:18:15.245Z,86.50
2022-09-17T19:20:42.471Z,86.40
2022-09-17T19:23:09.241Z,86.00
2022-09-17T19:25:37.287Z,86.10
2022-09-17T19:28:04.748Z,86.30
2022-09-17T19:30:31.759Z,86.30
2022-09-17T19:32:58.895Z,86.60
2022-09-17T19:35:26.309Z,86.50
2022-09-17T19:37:53.215Z,86.50
2022-09-17T19:40:20.352Z,86.00
2022-09-17T19:42:56.501Z,86.40
2022-09-17T19:45:23.957Z,86.10
2022-09-17T19:47:51.377Z,85.90
2022-09-17T19:50:18.841Z,85.90
2022-09-17T19:52:45.606Z,86.10
2022-09-17T19:55:13.036Z,86.40
2022-09-17T19:57:41.281Z,86.20
2022-09-17T20:00:10.560Z,86.00
2022-09-17T20:02:38.105Z,85.30
2022-09-17T20:05:05.287Z,86.00
2022-09-17T20:07:33.314Z,84.90
2022-09-17T20:09:59.954Z,85.00
2022-09-17T20:12:26.622Z,85.70
2022-09-17T20:14:53.382Z,86.00
2022-09-17T20:17:20.088Z,86.10
2022-09-17T20:19:46.861Z,86.30
2022-09-17T20:22:13.612Z,86.40
2022-09-17T20:24:40.720Z,86.30
2022-09-17T20:27:07.493Z,86.00
2022-09-17T20:29:34.342Z,86.80
2022-09-17T20:32:01.077Z,86.90
2022-09-17T20:34:27.729Z,87.50
2022-09-17T20:37:11.868Z,87.70
2022-09-17T20:39:39.600Z,86.90
2022-09-17T20:42:06.425Z,86.80
2022-09-17T20:44:33.127Z,87.40
2022-09-17T20:47:01.267Z,87.70
2022-09-17T20:49:28.368Z,87.80
2022-09-17T20:51:55.019Z,87.90
2022-09-17T20:54:21.741Z,87.60
2022-09-17T20:56:48.520Z,87.40
2022-09-17T20:59:18.449Z,87.00
2022-09-17T21:01:49.741Z,87.00
2022-09-17T21:04:19.575Z,87.00
2022-09-17T21:06:47.521Z,86.80
2022-09-17T21:09:17.878Z,87.00
2022-09-17T21:11:46.298Z,86.70
2022-09-17T21:14:15.233Z,86.80
2022-09-17T21:16:42.127Z,86.50
2022-09-17T21:19:10.993Z,86.30
2022-09-17T21:21:37.712Z,86.60
2022-09-17T21:24:06.657Z,86.10
2022-09-17T21:26:34.387Z,85.40
2022-09-17T21:29:01.727Z,85.70
2022-09-17T21:31:32.683Z,85.80
2022-09-17T21:34:05.950Z,84.90
2022-09-17T21:36:35.298Z,85.30
2022-09-17T21:39:05.123Z,85.90
2022-09-17T21:41:32.094Z,85.50
2022-09-17T21:43:59.479Z,85.00
2022-09-17T21:46:28.491Z,85.00
2022-09-17T21:49:01.971Z,85.10
2022-09-17T21:51:36.422Z,85.30
2022-09-17T21:54:08.738Z,85.30
2022-09-17T21:56:36.224Z,85.50
2022-09-17T21:59:05.804Z,85.70
2022-09-17T22:01:40.016Z,85.30
2022-09-17T22:04:09.038Z,85.50
2022-09-17T22:06:36.490Z,85.60
2022-09-17T22:09:04.835Z,85.40
2022-09-17T22:11:33.557Z,85.70
2022-09-17T22:14:09.153Z,85.00
2022-09-17T22:16:38.476Z,85.20
2022-09-17T22:19:06.195Z,84.10
2022-09-17T22:21:36.025Z,82.60
2022-09-17T22:24:03.916Z,82.70
2022-09-17T22:26:32.333Z,84.20
2022-09-17T22:29:03.907Z,84.00
2022-09-17T22:31:31.226Z,84.40
2022-09-17T22:33:58.172Z,83.60
2022-09-17T22:36:26.453Z,83.70
2022-09-17T22:38:58.444Z,81.90
2022-09-17T22:41:29.169Z,80.80
2022-09-17T22:44:01.433Z,81.00
2022-09-17T22:46:33.941Z,82.70
2022-09-17T22:49:01.636Z,80.40
2022-09-17T22:51:29.900Z,80.80
2022-09-17T22:53:58.147Z,80.80
2022-09-17T22:56:27.127Z,80.10
2022-09-17T22:58:54.087Z,81.00
2022-09-17T23:01:24.505Z,81.60
2022-09-17T23:03:52.416Z,82.60
2022-09-17T23:06:23.708Z,83.40
2022-09-17T23:08:50.596Z,83.10
2022-09-17T23:11:22.408Z,84.00
2022-09-17T23:13:50.071Z,84.50
2022-09-17T23:16:17.982Z,85.40
2022-09-17T23:18:45.100Z,86.40
2022-09-17T23:21:14.686Z,86.90
2022-09-17T23:23:43.315Z,86.70
2022-09-17T23:26:19.747Z,86.40
2022-09-17T23:28:47.068Z,86.20
2022-09-17T23:31:22.537Z,86.30
2022-09-17T23:33:51.616Z,86.60
2022-09-17T23:36:23.607Z,86.70
2022-09-17T23:38:50.438Z,87.00
2022-09-17T23:41:35.533Z,87.30
2022-09-17T23:44:04.690Z,87.10
2022-09-17T23:46:32.984Z,87.00
2022-09-17T23:49:00.511Z,86.70
2022-09-17T23:51:30.619Z,86.80
2022-09-17T23:53:58.391Z,87.00
2022-09-17T23:56:26.767Z,86.70
2022-09-17T23:58:54.922Z,86.40
